createdAt,value
2023-10-26T00:28:33.522Z,18.32
2023-10-26T00:31:04.828Z,18.29
2023-10-26T00:35:03.416Z,18.31
2023-10-26T00:37:49.800Z,18.26
2023-10-26T00:40:23.253Z,18.23
2023-10-26T00:43:00.567Z,18.20
2023-10-26T01:01:58.871Z,18.03
2023-10-26T01:05:21.046Z,18.05
2023-10-26T01:13:09.402Z,17.93
2023-10-26T01:50:31.836Z,17.41
2023-10-26T01:53:00.536Z,17.30
2023-10-26T01:55:29.737Z,17.31
2023-10-26T01:58:01.342Z,17.32
2023-10-26T02:00:30.502Z,17.35
2023-10-26T02:02:58.946Z,17.39
2023-10-26T02:05:28.755Z,17.43
2023-10-26T02:08:00.206Z,17.45
2023-10-26T02:10:31.636Z,17.49
2023-10-26T02:13:00.836Z,17.54
2023-10-26T02:15:32.079Z,17.53
2023-10-26T02:18:00.125Z,17.41
2023-10-26T02:20:33.641Z,17.28
2023-10-26T02:23:02.615Z,17.16
2023-10-26T02:25:31.046Z,17.05
2023-10-26T02:27:59.699Z,16.99
2023-10-26T02:30:28.344Z,16.94
2023-10-26T02:32:57.072Z,16.89
2023-10-26T02:35:25.927Z,16.83
2023-10-26T02:37:55.011Z,16.77
2023-10-26T02:40:24.337Z,16.69
2023-10-26T02:42:53.608Z,16.67
2023-10-26T02:45:22.543Z,16.67
2023-10-26T02:47:51.809Z,16.67
2023-10-26T02:50:20.670Z,16.65
2023-10-26T02:55:27.680Z,16.58
2023-10-26T02:57:59.819Z,16.60
2023-10-26T03:00:28.340Z,16.58
2023-10-26T03:03:00.981Z,16.59
2023-10-26T03:05:30.051Z,16.58
2023-10-26T03:07:58.528Z,16.55
2023-10-26T03:10:26.964Z,16.60
2023-10-26T03:13:03.214Z,16.65
2023-10-26T03:15:32.602Z,16.66
2023-10-26T03:18:01.085Z,16.63
2023-10-26T03:20:29.781Z,16.58
2023-10-26T03:22:58.631Z,16.56
2023-10-26T03:25:58.056Z,16.56
2023-10-26T03:34:07.870Z,16.44
2023-10-26T03:39:24.375Z,16.45
2023-10-26T03:41:53.306Z,16.45
2023-10-26T03:44:22.180Z,16.44
2023-10-26T03:46:59.000Z,16.42
2023-10-26T03:52:11.870Z,16.39
2023-10-26T03:54:40.850Z,16.39
2023-10-26T03:59:36.778Z,16.39
2023-10-26T04:02:05.420Z,16.48
2023-10-26T04:04:58.286Z,16.73
2023-10-26T04:07:26.724Z,16.78
2023-10-26T04:09:58.032Z,16.74
2023-10-26T04:12:27.917Z,16.73
2023-10-26T04:14:57.147Z,16.67
2023-10-26T04:17:26.073Z,16.62
2023-10-26T04:19:55.100Z,16.68
2023-10-26T04:22:23.770Z,16.66
2023-10-26T04:24:52.667Z,16.65
2023-10-26T04:27:22.077Z,16.63
2023-10-26T04:29:51.615Z,16.76
2023-10-26T04:32:20.507Z,16.98
2023-10-26T04:34:48.991Z,17.04
2023-10-26T04:37:18.055Z,16.98
2023-10-26T04:39:46.961Z,16.84
2023-10-26T04:42:16.261Z,16.70
2023-10-26T04:44:45.271Z,16.60
2023-10-26T04:47:13.728Z,16.54
2023-10-26T04:49:43.526Z,16.47
2023-10-26T04:52:16.632Z,16.41
2023-10-26T04:54:45.616Z,16.36
2023-10-26T04:57:14.047Z,16.32
2023-10-26T04:59:42.643Z,16.28
2023-10-26T05:02:11.357Z,16.26
2023-10-26T05:04:43.478Z,16.20
2023-10-26T05:10:29.619Z,16.16
2023-10-26T05:12:58.261Z,16.09
2023-10-26T05:15:27.664Z,16.07
2023-10-26T05:17:56.264Z,16.10
2023-10-26T05:22:53.115Z,16.21
2023-10-26T05:25:27.776Z,16.35
2023-10-26T05:30:27.431Z,16.53
2023-10-26T05:32:56.023Z,16.66
2023-10-26T05:35:24.952Z,16.73
2023-10-26T05:37:54.394Z,16.71
2023-10-26T05:40:32.349Z,16.55
2023-10-26T05:43:01.058Z,16.37
2023-10-26T05:45:31.497Z,16.42
2023-10-26T05:48:02.696Z,16.51
2023-10-26T05:50:31.053Z,16.50
2023-10-26T05:52:59.426Z,16.38
2023-10-26T05:55:27.831Z,16.41
2023-10-26T05:57:56.197Z,16.50
2023-10-26T06:00:24.786Z,16.60
2023-10-26T06:02:53.306Z,16.63
2023-10-26T06:05:22.356Z,16.56
2023-10-26T06:07:51.136Z,16.57
2023-10-26T06:10:19.785Z,16.67
2023-10-26T06:12:48.393Z,16.73
2023-10-26T06:15:18.384Z,16.80
2023-10-26T06:17:47.036Z,16.86
2023-10-26T06:20:16.377Z,16.89
2023-10-26T06:22:45.390Z,16.98
2023-10-26T06:25:14.135Z,17.04
2023-10-26T06:27:42.777Z,17.08
2023-10-26T06:30:27.690Z,17.02
2023-10-26T06:32:56.094Z,16.88
2023-10-26T06:35:25.117Z,16.73
2023-10-26T06:37:53.792Z,16.48
2023-10-26T06:40:23.021Z,16.33
2023-10-26T06:42:51.561Z,16.11
2023-10-26T06:45:30.919Z,15.95
2023-10-26T06:47:59.474Z,16.07
2023-10-26T06:50:28.058Z,16.25
2023-10-26T06:52:57.247Z,16.47
2023-10-26T06:55:30.919Z,16.64
2023-10-26T06:57:59.938Z,16.77
2023-10-26T07:00:28.982Z,16.82
2023-10-26T07:02:57.403Z,16.84
2023-10-26T07:05:25.844Z,16.84
2023-10-26T07:07:54.490Z,16.64
2023-10-26T07:10:23.167Z,16.47
2023-10-26T07:12:51.791Z,16.42
2023-10-26T07:15:20.544Z,16.32
2023-10-26T07:17:49.308Z,16.13
2023-10-26T07:20:18.006Z,15.91
2023-10-26T07:22:55.837Z,15.58
2023-10-26T07:25:24.284Z,15.26
2023-10-26T07:27:52.816Z,15.04
2023-10-26T07:30:21.648Z,14.84
2023-10-26T07:32:50.435Z,14.74
2023-10-26T07:35:19.291Z,14.63
2023-10-26T07:38:09.324Z,14.53
2023-10-26T07:40:54.434Z,14.38
2023-10-26T07:43:23.479Z,14.23
2023-10-26T07:45:53.381Z,14.09
2023-10-26T07:48:22.545Z,14.00
2023-10-26T07:50:57.329Z,13.95
2023-10-26T07:53:26.187Z,13.88
2023-10-26T07:55:58.820Z,13.84
2023-10-26T07:58:32.078Z,13.81
2023-10-26T08:01:00.569Z,13.74
2023-10-26T08:03:58.825Z,13.69
2023-10-26T08:06:27.555Z,13.56
2023-10-26T08:08:55.902Z,13.49
2023-10-26T08:11:25.248Z,13.48
2023-10-26T08:13:53.796Z,13.49
2023-10-26T08:16:40.708Z,13.48
2023-10-26T08:19:11.443Z,13.48
2023-10-26T08:24:15.485Z,13.70
2023-10-26T08:26:55.821Z,13.83
2023-10-26T08:29:28.052Z,13.79
2023-10-26T08:31:58.495Z,13.79
2023-10-26T08:34:30.280Z,13.80
2023-10-26T08:39:26.893Z,14.10
2023-10-26T08:42:00.538Z,14.28
2023-10-26T08:44:31.967Z,14.45
2023-10-26T08:47:01.716Z,14.50
2023-10-26T08:52:06.098Z,15.04
2023-10-26T08:54:53.871Z,15.08
2023-10-26T08:57:22.194Z,14.81
2023-10-26T08:59:54.773Z,14.58
2023-10-26T09:02:23.219Z,14.65
2023-10-26T09:05:09.363Z,14.85
2023-10-26T09:07:38.376Z,14.71
2023-10-26T09:13:08.230Z,14.78
2023-10-26T09:16:00.384Z,15.02
2023-10-26T09:18:29.935Z,14.84
2023-10-26T09:21:10.151Z,14.45
2023-10-26T09:23:42.224Z,14.24
2023-10-26T09:28:52.204Z,14.08
2023-10-26T09:31:21.274Z,13.93
2023-10-26T09:33:50.327Z,13.79
2023-10-26T09:36:20.588Z,13.91
2023-10-26T09:38:50.401Z,14.08
2023-10-26T09:41:21.060Z,14.40
2023-10-26T09:43:50.279Z,14.54
2023-10-26T09:48:48.030Z,13.99
2023-10-26T09:51:23.536Z,13.67
2023-10-26T09:53:53.267Z,13.37
2023-10-26T09:56:30.085Z,13.17
2023-10-26T09:59:00.310Z,13.10
2023-10-26T10:01:39.409Z,13.05
2023-10-26T10:04:09.938Z,12.91
2023-10-26T10:07:02.959Z,12.84
2023-10-26T10:09:32.482Z,12.76
2023-10-26T10:12:08.013Z,12.71
2023-10-26T10:15:05.707Z,12.64
2023-10-26T10:17:45.919Z,12.54
2023-10-26T10:20:35.968Z,12.48
2023-10-26T10:25:55.172Z,12.35
2023-10-26T10:28:23.601Z,12.32
2023-10-26T10:30:57.803Z,12.28
2023-10-26T10:33:28.315Z,12.26
2023-10-26T10:36:03.965Z,12.23
2023-10-26T10:38:33.836Z,12.35
2023-10-26T10:41:02.627Z,12.45
2023-10-26T10:43:36.559Z,12.88
2023-10-26T10:46:28.350Z,13.41
2023-10-26T10:48:56.790Z,13.81
2023-10-26T10:51:31.417Z,14.07
2023-10-26T10:54:06.017Z,14.29
2023-10-26T10:56:45.003Z,14.45
2023-10-26T10:59:27.970Z,14.25
2023-10-26T11:02:11.287Z,13.83
2023-10-26T11:07:36.210Z,13.27
2023-10-26T11:10:05.896Z,13.10
2023-10-26T11:12:34.323Z,12.96
2023-10-26T11:15:03.651Z,12.91
2023-10-26T11:17:33.955Z,12.87
2023-10-26T11:20:54.589Z,12.85
2023-10-26T11:23:26.013Z,12.75
2023-10-26T11:25:53.951Z,12.65
2023-10-26T11:28:49.586Z,12.60
2023-10-26T11:31:18.593Z,12.50
2023-10-26T11:33:47.034Z,12.40
2023-10-26T11:36:16.032Z,12.35
2023-10-26T11:38:51.719Z,12.32
2023-10-26T11:41:27.433Z,12.30
2023-10-26T11:43:56.581Z,12.27
2023-10-26T11:46:36.159Z,12.19
2023-10-26T11:49:08.546Z,12.06
2023-10-26T11:51:40.481Z,11.96
2023-10-26T11:54:30.625Z,11.90
2023-10-26T11:56:59.692Z,11.85
2023-10-26T11:59:30.780Z,11.88
2023-10-26T12:02:19.803Z,11.81
2023-10-26T12:04:52.310Z,11.71
2023-10-26T12:10:17.245Z,11.65
2023-10-26T12:12:46.547Z,11.72
2023-10-26T12:15:15.126Z,11.88
2023-10-26T12:17:43.709Z,12.07
2023-10-26T12:20:13.211Z,12.24
2023-10-26T12:22:52.107Z,12.37
2023-10-26T12:25:21.052Z,12.43
2023-10-26T12:28:19.972Z,12.45
2023-10-26T12:30:47.552Z,12.45
2023-10-26T12:36:47.647Z,12.37
2023-10-26T12:39:47.204Z,12.34
2023-10-26T12:42:45.721Z,12.08
2023-10-26T12:48:18.745Z,11.42
2023-10-26T12:50:47.175Z,11.13
2023-10-26T12:53:16.070Z,11.03
2023-10-26T12:58:15.947Z,11.22
2023-10-26T13:00:50.374Z,11.42
2023-10-26T13:03:46.147Z,11.48
2023-10-26T13:09:01.373Z,11.42
2023-10-26T13:11:39.634Z,11.42
2023-10-26T13:14:16.587Z,11.48
2023-10-26T13:19:15.107Z,11.56
2023-10-26T13:21:46.739Z,11.49
2023-10-26T13:24:15.164Z,11.48
2023-10-26T13:26:48.758Z,11.51
2023-10-26T13:29:17.212Z,11.51
2023-10-26T13:31:45.814Z,11.45
2023-10-26T13:34:14.204Z,11.30
2023-10-26T13:39:45.735Z,11.11
2023-10-26T13:42:17.682Z,10.99
2023-10-26T13:48:52.209Z,11.08
2023-10-26T13:51:53.213Z,11.06
2023-10-26T13:58:45.341Z,10.87
2023-10-26T14:05:47.133Z,10.89
2023-10-26T14:30:48.918Z,9.94
2023-10-26T15:16:42.719Z,11.22
2023-10-26T15:19:12.457Z,11.36
2023-10-26T15:21:40.942Z,11.49
2023-10-26T15:45:17.892Z,12.78
2023-10-26T17:01:43.713Z,17.49
2023-10-26T17:04:43.739Z,17.54
2023-10-26T17:07:44.930Z,17.64
2023-10-26T17:14:09.714Z,18.21
2023-10-26T17:17:37.743Z,18.07
2023-10-26T17:20:36.876Z,17.88
2023-10-26T17:23:42.111Z,17.66
2023-10-26T17:26:45.419Z,17.40
2023-10-26T17:38:40.414Z,17.17
2023-10-26T17:47:24.815Z,17.84
2023-10-26T17:54:09.782Z,18.42
2023-10-26T18:09:06.968Z,18.53
2023-10-26T18:11:37.545Z,18.43
2023-10-26T18:14:06.187Z,18.39
2023-10-26T18:16:36.669Z,18.38
2023-10-26T18:19:06.662Z,18.30
2023-10-26T18:22:08.288Z,18.34
2023-10-26T18:27:39.705Z,18.26
2023-10-26T18:30:09.336Z,18.42
2023-10-26T18:33:10.699Z,18.53
2023-10-26T18:38:38.213Z,18.31
2023-10-26T18:41:06.989Z,18.26
2023-10-26T18:47:04.462Z,18.17
2023-10-26T18:49:38.850Z,18.12
2023-10-26T18:52:10.458Z,18.17
2023-10-26T18:55:11.374Z,18.19
2023-10-26T18:58:04.996Z,18.27
2023-10-26T19:00:42.069Z,18.29
2023-10-26T19:03:11.791Z,18.37
2023-10-26T19:06:07.154Z,18.42
2023-10-26T19:09:05.403Z,18.44
2023-10-26T19:11:34.727Z,18.40
2023-10-26T19:14:08.697Z,18.54
2023-10-26T19:20:07.888Z,19.47
2023-10-26T19:22:39.203Z,19.71
2023-10-26T19:25:08.393Z,20.02
2023-10-26T19:27:39.333Z,20.12
2023-10-26T19:30:07.762Z,20.26
2023-10-26T19:32:36.404Z,20.32
2023-10-26T19:35:05.674Z,20.22
2023-10-26T19:37:34.650Z,20.27
2023-10-26T19:40:09.789Z,20.15
2023-10-26T19:45:34.423Z,20.39
2023-10-26T19:48:04.528Z,20.40
2023-10-26T19:50:33.789Z,20.38
2023-10-26T19:53:06.236Z,20.40
2023-10-26T19:55:35.088Z,20.49
2023-10-26T19:58:05.832Z,20.54
2023-10-26T20:00:34.209Z,20.38
2023-10-26T20:03:06.163Z,20.29
2023-10-26T20:05:34.574Z,20.37
2023-10-26T20:08:06.106Z,20.43
2023-10-26T20:11:08.534Z,20.38
2023-10-26T20:13:36.561Z,20.29
2023-10-26T20:16:12.879Z,20.31
2023-10-26T20:19:06.424Z,20.24
2023-10-26T20:21:36.551Z,20.27
2023-10-26T20:24:09.129Z,20.51
2023-10-26T20:26:39.739Z,20.66
2023-10-26T20:29:37.092Z,20.73
2023-10-26T20:32:09.481Z,20.72
2023-10-26T20:34:38.800Z,20.64
2023-10-26T20:37:12.608Z,20.53
2023-10-26T20:39:45.065Z,20.38
2023-10-26T20:42:13.711Z,20.07
2023-10-26T20:44:42.234Z,19.84
2023-10-26T20:47:10.653Z,19.66
2023-10-26T20:49:39.483Z,19.54
2023-10-26T20:52:08.652Z,19.43
2023-10-26T20:54:37.662Z,19.33
2023-10-26T20:57:06.672Z,19.31
2023-10-26T20:59:39.387Z,19.31
2023-10-26T21:02:08.547Z,19.28
2023-10-26T21:04:37.500Z,19.27
2023-10-26T21:10:07.720Z,19.30
2023-10-26T21:12:36.909Z,19.19
2023-10-26T21:15:18.386Z,19.12
2023-10-26T21:20:43.028Z,18.99
2023-10-26T21:23:46.081Z,18.92
2023-10-26T21:26:39.205Z,18.84
2023-10-26T21:33:37.422Z,18.87
2023-10-26T21:37:16.788Z,18.81
2023-10-26T21:39:38.462Z,18.80
2023-10-26T21:42:17.808Z,18.78
2023-10-26T21:48:35.523Z,18.72
2023-10-26T21:53:41.169Z,18.78
2023-10-26T21:56:10.237Z,18.80
2023-10-26T21:58:38.982Z,18.82
2023-10-26T22:01:09.093Z,18.80
2023-10-26T22:04:22.560Z,18.79
2023-10-26T22:09:07.674Z,18.71
2023-10-26T22:14:38.543Z,18.64
2023-10-26T22:17:34.989Z,18.62
2023-10-26T22:20:10.721Z,18.59
2023-10-26T22:22:42.431Z,18.53
2023-10-26T22:25:38.307Z,18.50
2023-10-26T22:28:13.374Z,18.49
2023-10-26T22:30:41.831Z,18.48
2023-10-26T22:33:12.862Z,18.47
2023-10-26T22:35:41.314Z,18.49
2023-10-26T22:38:11.986Z,18.53
2023-10-26T22:40:40.585Z,18.56
2023-10-26T22:43:34.498Z,18.60
2023-10-26T22:49:09.733Z,18.62
2023-10-26T22:51:41.898Z,18.61
2023-10-26T22:54:17.412Z,18.59
2023-10-26T22:56:46.124Z,18.55
2023-10-26T22:59:21.761Z,18.54
2023-10-26T23:02:06.227Z,18.52
2023-10-26T23:04:44.842Z,18.52
2023-10-26T23:07:21.753Z,18.50
2023-10-26T23:10:21.763Z,18.51
2023-10-26T23:16:04.081Z,18.46
2023-10-26T23:18:32.296Z,18.47
2023-10-26T23:21:11.761Z,18.50
2023-10-26T23:23:45.741Z,18.53
2023-10-26T23:26:17.782Z,18.55
2023-10-26T23:28:49.013Z,18.60
2023-10-26T23:31:33.040Z,18.62
2023-10-26T23:34:05.394Z,18.65
2023-10-26T23:36:43.095Z,18.64
2023-10-26T23:39:35.089Z,18.62
2023-10-26T23:42:06.816Z,18.61
2023-10-26T23:44:37.886Z,18.59
2023-10-26T23:47:07.573Z,18.59
2023-10-26T23:49:36.286Z,18.58
2023-10-26T23:52:04.784Z,18.56
2023-10-26T23:54:34.150Z,18.53
2023-10-26T23:57:02.947Z,18.52
2023-10-26T23:59:32.352Z,18.51
